Flight Track Log - Related Links

Times and Time Zones

All times are in EDT time to prevent confusion due to time zone crossing. See the CTL13 flight status page for this flight to view local times or setup timezone preferences in your user account.


Time Position Orientation Groundspeed Altitude Reporting Facility
EDT Latitude Longitude Course Direction KTS MPH feet Rate Location/Type
Mon 10:55:34 PM 41.7667 -87.7500 90° East 132 152 1,500  Level Chicago TRACON
Mon 10:56:34 PM 41.7667 -87.6833 90° East 166 191 2,100 480 Climbing Chicago TRACON
Mon 10:57:14 PM 41.7736 -87.6597 68° East 157 181 2,300 471 Climbing Chicago Center
Mon 10:58:16 PM 41.7778 -87.5958 85° East 166 191 2,900 683 Climbing Chicago Center
Mon 10:59:17 PM 41.7822 -87.5147 86° East 177 204 3,700 590 Climbing Chicago Center
Mon 11:00:18 PM 41.7861 -87.4464 86° East 184 212 4,100 488 Climbing Chicago Center
Mon 11:01:20 PM 41.7900 -87.3761 86° East 188 216 4,700 488 Climbing Chicago Center
Mon 11:02:21 PM 41.7928 -87.3053 87° East 190 219 5,100 148 Climbing Chicago Center
Mon 11:03:22 PM 41.7956 -87.2300 87° East 199 229 5,000  Descending Chicago Center
Mon 11:04:24 PM 41.7969 -87.1536 89° East 204 235 5,100 49 Climbing Chicago Center
Mon 11:05:25 PM 41.8008 -87.0772 86° East 206 237 5,100  Level Chicago Center
Mon 11:06:26 PM 41.8133 -87.0081 76° East 200 230 5,100  Level Chicago Center
Mon 11:07:28 PM 41.8583 -86.9503 44° Northeast 186 214 5,100 -49 Level Chicago Center
Mon 11:08:29 PM 41.8978 -86.8981 45° Northeast 192 221 5,000  Descending Chicago Center
Mon 11:09:30 PM 41.9322 -86.8497 46° Northeast 189 217 5,100 49 Climbing Chicago Center
Mon 11:10:32 PM 41.9686 -86.8019 44° Northeast 186 214 5,100  Level Chicago Center
Mon 11:11:33 PM 42.0028 -86.7517 48° Northeast 184 212 5,100 -49 Level Chicago Center
Mon 11:12:34 PM 42.0408 -86.6972 47° Northeast 182 209 5,000  Descending Chicago Center
Mon 11:13:35 PM 42.0753 -86.6478 47° Northeast 182 209 5,100 49 Climbing Chicago Center
Mon 11:14:37 PM 42.1117 -86.5975 46° Northeast 185 213 5,100  Level Chicago Center
Mon 11:15:38 PM 42.1494 -86.5494 43° Northeast 187 215 5,100  Level Chicago Center
Mon 11:16:39 PM 42.1856 -86.5006 45° Northeast 185 213 5,100  Level Chicago Center
Mon 11:17:41 PM 42.2217 -86.4531 44° Northeast 182 209 5,100  Level Chicago Center
Mon 11:18:42 PM 42.2578 -86.4039 45° Northeast 184 212 5,100  Level Chicago Center
Mon 11:19:43 PM 42.2972 -86.3489 46° Northeast 180 207 5,100  Level Chicago Center
Mon 11:20:45 PM 42.3319 -86.3033 44° Northeast 177 204 5,100  Level Chicago Center
Mon 11:21:46 PM 42.3669 -86.2558 45° Northeast 178 205 5,100  Level Chicago Center
Mon 11:22:47 PM 42.4006 -86.2089 46° Northeast 176 203 5,100  Level Chicago Center
Mon 11:23:48 PM 42.4333 -86.1603 48° Northeast 175 201 5,100  Level Chicago Center
Mon 11:24:50 PM 42.4667 -86.1125 47° Northeast 174 200 5,100  Level Chicago Center
Mon 11:25:51 PM 42.5006 -86.0675 44° Northeast 174 200 5,100  Level Chicago Center
Mon 11:26:52 PM 42.5408 -86.0136 45° Northeast 171 197 5,100  Level Chicago Center
Mon 11:27:54 PM 42.5736 -85.9667 47° Northeast 171 197 5,100  Level Chicago Center
Mon 11:28:55 PM 42.6050 -85.9225 46° Northeast 166 191 5,100 -49 Level Chicago Center
Mon 11:29:56 PM 42.6375 -85.8778 45° Northeast 168 193 5,000 -195 Descending Chicago Center
Mon 11:30:58 PM 42.6694 -85.8319 47° Northeast 167 192 4,700 -537 Descending Chicago Center
Mon 11:31:59 PM 42.7039 -85.7800 48° Northeast 179 206 3,900 -689 Descending Chicago Center
Mon 11:33:00 PM 42.7397 -85.7236 49° Northeast 192 221 3,300 -390 Descending Chicago Center
Mon 11:34:02 PM 42.7575 -85.6519 71° East 209 241 3,100 -98 Descending Chicago Center
Mon 11:35:03 PM 42.7778 -85.5731 71° East 190 219 3,100 -148 Level Chicago Center
Mon 11:36:04 PM 42.7967 -85.5133 67° East 180 207 2,800 -780 Descending Chicago Center
Mon 11:37:06 PM 42.8406 -85.5072 North 169 194 1,500 -878 Descending Chicago Center
Mon 11:38:07 PM 42.8739 -85.5156 350° North 156 180 1,000 -492 Descending Chicago Center
Mon 11:40:00 PM 42.8667 -85.5167 56° Northeast  Level FlightAware Approximate

Login

Don't have an account? Register now (free) for customized features, flight alerts, and more!